Time;durP1;ratioP1;P1;durP2;ratioP2;P2;SDS_P1;SDS_P2;PMS_P1;PMS_P2;Temp;Humidity;BMP_temperature;BMP_pressure;BME280_temperature;BME280_humidity;BME280_pressure;Samples;Min_cycle;Max_cycle;Signal;HPM_P1;HPM_P2
2023/04/11 00:02:14;;;;;;;0.40;0.40;;;12.00;86.90;;;;;;5034352;28;20179;-70
2023/04/11 00:04:40;;;;;;;0.60;0.60;;;12.00;85.00;;;;;;5034137;28;20177;-76
2023/04/11 00:07:09;;;;;;;0.40;0.40;;;12.00;82.10;;;;;;5034402;28;20400;-73
2023/04/11 00:09:35;;;;;;;10.37;0.60;;;12.10;82.20;;;;;;5034260;28;20589;-75
2023/04/11 00:12:01;;;;;;;1.67;1.57;;;12.20;83.70;;;;;;5034262;28;20528;-75
2023/04/11 00:14:27;;;;;;;1.07;0.70;;;12.20;86.40;;;;;;5034018;28;20401;-73
2023/04/11 00:16:54;;;;;;;0.40;0.40;;;12.10;83.70;;;;;;5034478;28;20508;-73
2023/04/11 00:19:22;;;;;;;0.40;0.40;;;12.20;83.30;;;;;;5034170;28;20936;-74
2023/04/11 00:21:49;;;;;;;0.50;0.50;;;12.20;84.50;;;;;;5033961;28;20422;-72
2023/04/11 00:24:15;;;;;;;0.40;0.40;;;12.20;87.40;;;;;;5033971;28;20402;-75
2023/04/11 00:26:41;;;;;;;0.70;0.70;;;12.10;88.30;;;;;;5034256;28;20400;-75
2023/04/11 00:29:06;;;;;;;0.33;0.33;;;12.10;88.60;;;;;;5034084;28;20402;-75
2023/04/11 00:31:32;;;;;;;0.53;0.43;;;12.00;88.70;;;;;;5034250;28;20193;-73
2023/04/11 00:33:58;;;;;;;0.40;0.40;;;12.00;88.80;;;;;;5033860;28;20175;-75
2023/04/11 00:36:25;;;;;;;1.67;1.47;;;11.90;89.30;;;;;;5033894;28;20257;-75
2023/04/11 00:38:51;;;;;;;0.63;0.63;;;11.70;91.40;;;;;;5033714;28;20663;-74
2023/04/11 00:41:17;;;;;;;1.03;0.60;;;11.50;90.50;;;;;;5033821;28;20302;-73
2023/04/11 00:43:43;;;;;;;0.60;0.60;;;11.40;91.10;;;;;;5033498;28;20305;-76
2023/04/11 00:46:09;;;;;;;0.87;0.70;;;11.30;90.50;;;;;;5033603;28;20571;-75
2023/04/11 00:48:35;;;;;;;0.30;0.30;;;11.30;90.10;;;;;;5033627;28;20171;-76
2023/04/11 00:51:01;;;;;;;0.50;0.50;;;11.30;89.70;;;;;;5033523;28;20213;-73
2023/04/11 00:53:31;;;;;;;0.83;0.60;;;11.30;89.80;;;;;;5033370;28;20428;-75
2023/04/11 00:56:00;;;;;;;0.47;0.47;;;11.20;88.40;;;;;;5033788;28;20492;-73
2023/04/11 00:58:26;;;;;;;0.40;0.40;;;11.30;88.60;;;;;;5033579;28;20203;-76
2023/04/11 01:00:52;;;;;;;1.15;1.15;;;11.20;89.50;;;;;;5033336;28;20167;-72
2023/04/11 01:03:18;;;;;;;1.17;1.07;;;11.20;90.00;;;;;;5033235;28;20221;-73
2023/04/11 01:05:45;;;;;;;0.37;0.37;;;11.30;89.80;;;;;;5033526;28;20173;-76
2023/04/11 01:08:12;;;;;;;0.40;0.40;;;11.30;90.20;;;;;;5015762;28;20468;-74
2023/04/11 01:10:40;;;;;;;0.63;0.63;;;11.30;90.20;;;;;;5033118;28;20429;-75
2023/04/11 01:13:06;;;;;;;1.70;0.57;;;11.30;90.60;;;;;;5033072;28;20221;-74
2023/04/11 01:15:31;;;;;;;1.00;1.00;;;11.40;90.90;;;;;;5033453;28;20167;-75
2023/04/11 01:18:00;;;;;;;1.47;1.37;;;11.50;91.40;;;;;;5033234;28;20206;-75
2023/04/11 01:20:27;;;;;;;2.00;1.57;;;11.50;91.00;;;;;;5015575;28;20228;-73
2023/04/11 01:22:56;;;;;;;0.50;0.50;;;11.60;91.20;;;;;;5032879;28;20478;-73
2023/04/11 01:25:22;;;;;;;0.60;0.60;;;11.60;91.10;;;;;;5033769;28;20481;-74
2023/04/11 01:27:48;;;;;;;1.00;0.60;;;11.60;91.20;;;;;;5033028;28;20456;-72
2023/04/11 01:30:15;;;;;;;1.23;1.10;;;11.70;91.30;;;;;;5033324;28;20817;-75
2023/04/11 01:32:40;;;;;;;0.45;0.45;;;11.80;91.30;;;;;;5033022;28;20429;-75
2023/04/11 01:35:07;;;;;;;0.63;0.63;;;11.80;91.00;;;;;;5032966;28;20175;-73
2023/04/11 01:37:33;;;;;;;0.47;0.47;;;11.80;91.00;;;;;;5033198;28;20191;-76
2023/04/11 01:39:59;;;;;;;0.57;0.57;;;11.80;91.10;;;;;;5033132;28;20449;-75
2023/04/11 01:42:28;;;;;;;0.53;0.53;;;11.90;91.80;;;;;;5032877;28;20425;-73
2023/04/11 01:44:55;;;;;;;0.40;0.40;;;11.80;92.10;;;;;;5032821;28;20798;-72
2023/04/11 01:47:21;;;;;;;1.53;1.43;;;11.70;92.70;;;;;;5033002;28;20417;-71
2023/04/11 01:49:47;;;;;;;0.40;0.40;;;11.80;93.40;;;;;;5036620;28;20485;-74
2023/04/11 01:52:13;;;;;;;7.95;1.27;;;11.80;93.40;;;;;;5036766;28;20944;-72
2023/04/11 01:54:38;;;;;;;1.23;1.07;;;11.80;94.00;;;;;;5036575;28;20206;-74
2023/04/11 01:57:05;;;;;;;0.97;0.97;;;11.80;95.40;;;;;;5036716;28;20661;-74
2023/04/11 01:59:30;;;;;;;0.63;0.50;;;11.70;96.10;;;;;;5036726;28;20183;-73
2023/04/11 02:01:56;;;;;;;0.50;0.50;;;11.60;97.70;;;;;;5036584;28;20532;-72
2023/04/11 02:04:22;;;;;;;0.60;0.60;;;11.50;98.00;;;;;;5036626;28;20272;-75
2023/04/11 02:06:47;;;;;;;0.40;0.40;;;11.40;98.70;;;;;;5036780;28;20627;-74
2023/04/11 02:09:13;;;;;;;0.60;0.60;;;11.10;99.20;;;;;;5036571;28;20186;-75
2023/04/11 02:11:38;;;;;;;0.70;0.70;;;10.90;99.90;;;;;;5036645;28;20191;-76
2023/04/11 02:14:05;;;;;;;0.83;0.63;;;10.80;99.90;;;;;;5036304;28;20257;-75
2023/04/11 02:16:30;;;;;;;0.98;0.90;;;10.90;99.90;;;;;;5036483;28;20183;-74
2023/04/11 02:18:56;;;;;;;1.17;1.10;;;10.70;99.90;;;;;;5036389;28;20206;-72
2023/04/11 02:21:22;;;;;;;0.50;0.50;;;10.50;99.90;;;;;;5036507;28;20190;-73
2023/04/11 02:23:48;;;;;;;11.50;0.70;;;10.50;99.90;;;;;;5036128;28;20901;-75
2023/04/11 02:26:13;;;;;;;1.17;1.07;;;10.50;99.90;;;;;;5036257;28;20173;-74
2023/04/11 02:28:39;;;;;;;0.30;0.30;;;10.50;99.90;;;;;;5018557;28;20180;-76
2023/04/11 02:31:05;;;;;;;0.50;0.43;;;10.50;99.90;;;;;;5036174;28;20201;-76
2023/04/11 02:33:31;;;;;;;0.52;0.52;;;10.50;99.90;;;;;;5035911;28;20654;-73
2023/04/11 02:35:57;;;;;;;0.83;0.80;;;10.50;99.90;;;;;;5036235;28;20217;-74
2023/04/11 02:38:22;;;;;;;0.80;0.60;;;10.60;99.90;;;;;;5036054;28;20194;-75
2023/04/11 02:40:48;;;;;;;0.60;0.60;;;10.60;99.90;;;;;;5035945;28;20406;-72
2023/04/11 02:43:15;;;;;;;0.30;0.30;;;10.60;99.90;;;;;;5035808;28;20224;-74
2023/04/11 02:45:40;;;;;;;0.30;0.30;;;10.10;99.90;;;;;;5035986;28;20178;-74
2023/04/11 02:48:07;;;;;;;0.70;0.40;;;10.10;99.90;;;;;;5036026;28;20171;-75
2023/04/11 02:50:32;;;;;;;0.30;0.30;;;10.30;99.90;;;;;;5035970;28;20406;-74
2023/04/11 02:52:58;;;;;;;0.70;0.50;;;10.40;99.90;;;;;;5035487;28;20191;-72
2023/04/11 02:55:24;;;;;;;0.83;0.83;;;10.40;99.90;;;;;;5017919;28;20647;-72
2023/04/11 02:57:50;;;;;;;0.40;0.40;;;10.40;99.90;;;;;;5035663;28;20252;-72
2023/04/11 03:00:18;;;;;;;2.20;1.73;;;10.30;99.90;;;;;;5034695;28;20405;-73
2023/04/11 03:02:43;;;;;;;0.35;0.35;;;10.30;99.90;;;;;;5035546;28;20179;-76
2023/04/11 03:05:09;;;;;;;0.40;0.40;;;10.40;99.90;;;;;;5035569;28;20507;-72
2023/04/11 03:07:37;;;;;;;1.03;1.03;;;10.40;99.90;;;;;;5035658;28;20254;-73
2023/04/11 03:10:03;;;;;;;0.80;0.73;;;10.50;99.90;;;;;;5035370;28;20519;-73
2023/04/11 03:12:29;;;;;;;0.30;0.30;;;10.50;99.90;;;;;;5035548;28;20197;-75
2023/04/11 03:14:54;;;;;;;0.40;0.40;;;10.40;99.90;;;;;;5035328;28;20167;-75
2023/04/11 03:17:20;;;;;;;0.40;0.40;;;10.40;99.90;;;;;;5035401;28;20689;-75
2023/04/11 03:19:46;;;;;;;0.40;0.40;;;10.50;99.90;;;;;;5035438;28;20166;-74
2023/04/11 03:22:11;;;;;;;0.30;0.30;;;10.60;99.90;;;;;;5035395;28;20187;-75
2023/04/11 03:24:38;;;;;;;1.70;0.83;;;10.40;99.90;;;;;;5035070;28;20167;-74
2023/04/11 03:27:04;;;;;;;0.50;0.50;;;10.40;99.90;;;;;;5035184;28;20187;-74
2023/04/11 03:29:31;;;;;;;0.50;0.50;;;10.40;99.90;;;;;;5035198;28;20245;-73
2023/04/11 03:31:57;;;;;;;0.30;0.30;;;10.40;99.90;;;;;;5034955;28;20193;-73
2023/04/11 03:34:24;;;;;;;0.50;0.43;;;10.40;99.90;;;;;;5034917;28;20175;-71
2023/04/11 03:36:50;;;;;;;0.30;0.30;;;10.20;99.90;;;;;;5035056;28;20416;-74
2023/04/11 03:39:16;;;;;;;0.40;0.40;;;10.20;99.90;;;;;;5017110;28;20623;-73
2023/04/11 03:41:42;;;;;;;0.40;0.40;;;10.20;99.90;;;;;;5034816;28;20187;-77
2023/04/11 03:44:08;;;;;;;0.60;0.60;;;10.20;99.90;;;;;;5034758;28;20658;-73
2023/04/11 03:46:33;;;;;;;0.40;0.40;;;10.00;99.90;;;;;;5034898;28;20250;-72
2023/04/11 03:48:59;;;;;;;0.40;0.40;;;9.90;99.90;;;;;;5034942;28;20224;-74
2023/04/11 03:51:25;;;;;;;0.50;0.50;;;10.00;99.90;;;;;;5034756;28;20198;-75
2023/04/11 03:53:51;;;;;;;0.40;0.40;;;10.00;99.90;;;;;;5034646;28;20246;-76
2023/04/11 03:56:17;;;;;;;0.40;0.40;;;9.90;99.90;;;;;;5034724;28;20262;-74
2023/04/11 03:58:42;;;;;;;0.50;0.50;;;9.90;99.90;;;;;;5034581;28;20194;-74
2023/04/11 04:01:08;;;;;;;0.30;0.30;;;9.80;99.90;;;;;;5034595;28;20197;-73
2023/04/11 04:03:34;;;;;;;1.20;1.10;;;9.70;99.90;;;;;;5034299;28;20171;-74
2023/04/11 04:05:59;;;;;;;0.40;0.40;;;9.60;99.90;;;;;;5034560;28;20171;-76
2023/04/11 04:08:25;;;;;;;0.60;0.60;;;9.60;99.90;;;;;;5034348;28;20178;-76
2023/04/11 04:10:51;;;;;;;0.30;0.30;;;9.70;99.90;;;;;;5033985;28;20186;-74
2023/04/11 04:13:16;;;;;;;0.40;0.40;;;9.60;99.90;;;;;;5034219;28;20166;-70
2023/04/11 04:15:42;;;;;;;0.33;0.33;;;9.50;99.90;;;;;;5034464;28;20167;-72
2023/04/11 04:18:07;;;;;;;2.33;1.07;;;9.50;99.90;;;;;;5016516;28;20277;-74
2023/04/11 04:20:33;;;;;;;0.40;0.40;;;9.50;99.90;;;;;;5034235;28;20250;-76
2023/04/11 04:22:59;;;;;;;1.90;0.70;;;9.50;99.90;;;;;;5034295;28;20218;-72
2023/04/11 04:25:25;;;;;;;0.57;0.57;;;9.60;99.90;;;;;;5034222;28;20169;-76
2023/04/11 04:27:52;;;;;;;0.65;0.43;;;9.60;99.90;;;;;;5034078;28;20170;-72
2023/04/11 04:30:20;;;;;;;0.50;0.50;;;9.70;99.90;;;;;;5034008;28;20171;-75
2023/04/11 04:32:46;;;;;;;0.40;0.40;;;9.60;99.90;;;;;;5033970;28;20206;-74
2023/04/11 04:35:15;;;;;;;0.50;0.50;;;9.70;99.90;;;;;;5033634;28;20175;-73
2023/04/11 04:37:44;;;;;;;0.30;0.30;;;9.70;99.90;;;;;;5033711;28;20190;-76
2023/04/11 04:40:12;;;;;;;0.43;0.43;;;9.60;99.90;;;;;;5033690;28;20171;-74
2023/04/11 04:42:40;;;;;;;0.50;0.50;;;9.70;99.90;;;;;;5016469;28;20269;-74
2023/04/11 04:45:08;;;;;;;0.50;0.50;;;9.70;99.90;;;;;;5033687;28;20178;-75
2023/04/11 04:47:35;;;;;;;0.45;0.45;;;9.80;99.90;;;;;;5033815;28;20537;-74
2023/04/11 04:50:01;;;;;;;1.88;1.42;;;9.80;99.90;;;;;;5033821;28;20170;-75
2023/04/11 04:52:28;;;;;;;0.63;0.63;;;9.90;99.90;;;;;;5033728;28;20186;-73
2023/04/11 04:54:57;;;;;;;0.50;0.50;;;9.80;99.90;;;;;;5033454;28;20273;-73
2023/04/11 04:57:30;;;;;;;0.60;0.50;;;9.70;99.90;;;;;;5033572;28;20195;-76
2023/04/11 04:59:56;;;;;;;0.38;0.38;;;9.80;99.90;;;;;;5033676;28;20163;-74
2023/04/11 05:02:24;;;;;;;0.40;0.40;;;9.70;99.90;;;;;;5033608;28;20194;-71
2023/04/11 05:04:49;;;;;;;0.47;0.47;;;9.70;99.90;;;;;;5033245;28;20224;-73
2023/04/11 05:07:17;;;;;;;0.50;0.50;;;9.60;99.90;;;;;;5033425;28;20167;-75
2023/04/11 05:09:42;;;;;;;1.08;0.75;;;9.50;99.90;;;;;;5033355;28;20179;-72
2023/04/11 05:12:08;;;;;;;0.30;0.30;;;9.60;99.90;;;;;;5033416;28;20202;-74
2023/04/11 05:14:34;;;;;;;0.50;0.50;;;9.70;99.90;;;;;;5033060;28;20201;-74
2023/04/11 05:16:59;;;;;;;0.30;0.30;;;9.70;99.90;;;;;;5033161;28;20174;-73
2023/04/11 05:19:25;;;;;;;1.10;0.83;;;9.70;99.90;;;;;;5033429;28;20170;-75
2023/04/11 05:21:51;;;;;;;0.50;0.50;;;9.70;99.90;;;;;;5033140;28;20195;-74
2023/04/11 05:24:16;;;;;;;0.60;0.40;;;9.60;99.90;;;;;;5032528;28;20189;-74
2023/04/11 05:26:42;;;;;;;0.40;0.40;;;9.70;99.90;;;;;;5033190;28;20174;-74
2023/04/11 05:29:10;;;;;;;0.90;0.90;;;9.80;99.90;;;;;;5033063;28;20575;-73
2023/04/11 05:31:36;;;;;;;0.63;0.63;;;9.80;99.90;;;;;;5033176;28;20237;-72
2023/04/11 05:34:02;;;;;;;1.03;0.70;;;9.90;99.90;;;;;;5032929;28;20635;-74
2023/04/11 05:36:28;;;;;;;0.45;0.45;;;10.00;99.90;;;;;;5033257;28;20924;-77
2023/04/11 05:38:54;;;;;;;1.00;0.97;;;10.00;99.90;;;;;;5033097;28;20203;-72
2023/04/11 05:41:20;;;;;;;2.23;1.07;;;10.00;99.90;;;;;;5033110;28;20472;-73
2023/04/11 05:43:46;;;;;;;0.60;0.60;;;9.90;99.90;;;;;;5032822;28;20421;-74
2023/04/11 05:46:12;;;;;;;0.40;0.40;;;9.90;99.90;;;;;;5032940;28;20413;-74
2023/04/11 05:48:37;;;;;;;0.30;0.30;;;10.00;99.90;;;;;;5033000;28;20223;-76
2023/04/11 05:51:04;;;;;;;0.60;0.60;;;10.00;99.90;;;;;;5033030;28;20199;-75
2023/04/11 05:53:30;;;;;;;0.50;0.50;;;10.00;99.90;;;;;;5032896;28;20183;-72
2023/04/11 05:55:56;;;;;;;0.30;0.30;;;10.00;99.90;;;;;;5033094;28;20175;-74
2023/04/11 05:58:23;;;;;;;0.40;0.40;;;10.00;99.90;;;;;;5032940;28;20274;-74
2023/04/11 06:00:48;;;;;;;0.60;0.60;;;10.00;99.90;;;;;;5032918;28;20171;-76
2023/04/11 06:03:14;;;;;;;0.70;0.70;;;10.10;99.90;;;;;;5014942;28;20482;-73
2023/04/11 06:05:40;;;;;;;2.10;0.77;;;10.00;99.90;;;;;;5033012;28;20175;-77
2023/04/11 06:08:07;;;;;;;0.53;0.53;;;10.00;99.90;;;;;;5032912;28;20174;-71
2023/04/11 06:10:33;;;;;;;0.40;0.40;;;9.90;99.90;;;;;;5032650;28;20524;-73
2023/04/11 06:12:59;;;;;;;0.73;0.70;;;9.80;99.90;;;;;;5032607;28;20195;-74
2023/04/11 06:15:25;;;;;;;0.40;0.40;;;9.80;99.90;;;;;;5032760;28;20246;-74
2023/04/11 06:17:51;;;;;;;1.05;0.60;;;9.70;99.90;;;;;;5032714;28;20278;-72
2023/04/11 06:20:18;;;;;;;0.30;0.30;;;9.70;99.90;;;;;;5032770;28;20246;-72
2023/04/11 06:22:45;;;;;;;0.50;0.50;;;9.60;99.90;;;;;;5032644;28;20190;-73
2023/04/11 06:25:11;;;;;;;0.50;0.50;;;9.50;99.90;;;;;;5032621;28;20200;-73
2023/04/11 06:27:37;;;;;;;0.80;0.80;;;9.40;99.90;;;;;;5032519;28;20567;-77
2023/04/11 06:30:02;;;;;;;0.63;0.43;;;9.30;99.90;;;;;;5032609;28;20185;-74
2023/04/11 06:32:28;;;;;;;1.07;1.07;;;9.30;99.90;;;;;;5032528;28;20244;-75
2023/04/11 06:34:54;;;;;;;0.30;0.30;;;9.20;99.90;;;;;;5034392;28;20433;-72
2023/04/11 06:37:20;;;;;;;1.63;0.53;;;9.10;99.90;;;;;;5036139;28;20213;-73
2023/04/11 06:39:46;;;;;;;0.30;0.30;;;9.10;99.90;;;;;;5036247;28;20190;-74
2023/04/11 06:42:11;;;;;;;0.30;0.30;;;9.00;99.90;;;;;;5036115;28;20425;-74
2023/04/11 06:44:37;;;;;;;0.50;0.50;;;9.00;99.90;;;;;;5035803;28;20504;-75
2023/04/11 06:47:03;;;;;;;0.30;0.30;;;9.00;99.90;;;;;;5035986;28;20166;-74
2023/04/11 06:49:29;;;;;;;0.40;0.40;;;8.90;99.90;;;;;;5035967;28;20189;-75
2023/04/11 06:51:54;;;;;;;0.30;0.30;;;9.00;99.90;;;;;;5018113;28;20244;-75
2023/04/11 06:54:21;;;;;;;0.30;0.30;;;9.00;99.90;;;;;;5035667;28;20405;-73
2023/04/11 06:56:49;;;;;;;0.30;0.30;;;9.00;99.90;;;;;;5035869;28;20167;-73
2023/04/11 06:59:18;;;;;;;0.40;0.40;;;8.90;99.90;;;;;;5035807;28;20199;-72
2023/04/11 07:01:44;;;;;;;0.40;0.40;;;8.90;99.90;;;;;;5035639;28;20194;-74
2023/04/11 07:04:10;;;;;;;0.35;0.35;;;8.90;99.90;;;;;;5035566;28;20249;-73
2023/04/11 07:06:35;;;;;;;0.40;0.40;;;8.90;99.90;;;;;;5035621;28;20249;-72
2023/04/11 07:09:04;;;;;;;0.70;0.70;;;8.90;99.90;;;;;;5035590;28;20174;-73
2023/04/11 07:11:31;;;;;;;0.38;0.38;;;8.90;99.90;;;;;;5036067;28;20245;-72
2023/04/11 07:14:00;;;;;;;1.52;0.70;;;8.90;99.90;;;;;;5035296;28;20265;-74
2023/04/11 07:16:26;;;;;;;0.43;0.43;;;8.80;99.90;;;;;;5035336;28;20178;-73
2023/04/11 07:18:55;;;;;;;0.40;0.40;;;8.90;99.90;;;;;;5035452;28;20202;-72
2023/04/11 07:21:21;;;;;;;0.40;0.40;;;8.90;99.90;;;;;;5035372;28;20590;-75
2023/04/11 07:23:47;;;;;;;0.47;0.40;;;9.00;99.90;;;;;;5035054;28;20179;-74
2023/04/11 07:26:13;;;;;;;0.30;0.30;;;9.00;99.90;;;;;;5035459;28;20190;-75
2023/04/11 07:28:39;;;;;;;0.30;0.30;;;9.00;99.90;;;;;;5035151;28;20402;-74
2023/04/11 07:31:08;;;;;;;0.35;0.35;;;9.00;99.90;;;;;;5035137;28;20202;-76
2023/04/11 07:33:37;;;;;;;0.38;0.38;;;9.00;99.90;;;;;;5034890;28;20256;-74
2023/04/11 07:36:05;;;;;;;0.30;0.30;;;9.10;99.90;;;;;;5035191;28;20179;-72
2023/04/11 07:38:32;;;;;;;0.40;0.40;;;9.00;99.90;;;;;;5035045;28;20527;-73
2023/04/11 07:41:00;;;;;;;0.30;0.30;;;9.10;99.90;;;;;;5034901;28;20631;-75
2023/04/11 07:43:27;;;;;;;0.40;0.40;;;9.10;99.90;;;;;;5016828;28;20181;-74
2023/04/11 07:45:55;;;;;;;0.40;0.40;;;9.10;99.90;;;;;;5034327;28;20185;-73
2023/04/11 07:48:21;;;;;;;0.40;0.40;;;9.10;99.90;;;;;;5035015;28;20503;-76
2023/04/11 07:50:47;;;;;;;0.70;0.70;;;9.10;99.90;;;;;;5034771;28;20182;-75
2023/04/11 07:53:13;;;;;;;0.30;0.30;;;9.10;99.90;;;;;;5034734;28;20253;-74
2023/04/11 07:55:39;;;;;;;0.30;0.30;;;9.10;99.90;;;;;;5034720;28;20174;-75
2023/04/11 07:58:05;;;;;;;13.20;0.82;;;9.20;99.90;;;;;;5034629;28;20611;-76
2023/04/11 08:00:32;;;;;;;0.30;0.30;;;9.20;99.90;;;;;;5034676;28;20205;-74
2023/04/11 08:03:03;;;;;;;0.30;0.30;;;9.30;99.90;;;;;;5034234;28;20433;-72
2023/04/11 08:05:31;;;;;;;0.30;0.30;;;9.50;99.90;;;;;;5017033;28;20276;-75
2023/04/11 08:07:56;;;;;;;0.30;0.30;;;9.60;99.90;;;;;;5034415;28;20529;-71
2023/04/11 08:10:23;;;;;;;0.60;0.60;;;9.90;99.70;;;;;;5034329;28;20194;-74
2023/04/11 08:12:49;;;;;;;0.40;0.40;;;10.10;99.20;;;;;;5016285;28;20198;-73
2023/04/11 08:15:15;;;;;;;0.30;0.30;;;10.30;98.90;;;;;;5034363;28;20175;-74
2023/04/11 08:17:42;;;;;;;1.27;0.80;;;10.30;98.80;;;;;;5034306;28;20272;-72
2023/04/11 08:20:10;;;;;;;0.30;0.30;;;10.40;99.40;;;;;;5034305;28;20756;-73
2023/04/11 08:22:40;;;;;;;0.30;0.30;;;10.60;99.50;;;;;;5034176;28;20190;-75
2023/04/11 08:25:08;;;;;;;0.35;0.35;;;10.70;97.60;;;;;;5033999;28;20568;-72
2023/04/11 08:27:34;;;;;;;0.30;0.30;;;10.70;98.00;;;;;;5034290;28;20175;-72
2023/04/11 08:30:00;;;;;;;1.73;1.02;;;10.80;97.70;;;;;;5034125;28;20228;-75
2023/04/11 08:32:26;;;;;;;1.33;0.80;;;10.70;96.20;;;;;;5033835;28;20194;-76
2023/04/11 08:34:52;;;;;;;0.30;0.30;;;10.80;96.80;;;;;;5033698;28;20493;-74
2023/04/11 08:37:17;;;;;;;0.30;0.30;;;10.80;95.80;;;;;;5033966;28;20192;-73
2023/04/11 08:39:43;;;;;;;0.30;0.30;;;10.90;96.30;;;;;;5034025;28;20173;-76
2023/04/11 08:42:23;;;;;;;0.50;0.50;;;11.00;97.30;;;;;;5033699;28;20182;-74
2023/04/11 08:45:08;;;;;;;0.70;0.70;;;11.20;97.20;;;;;;5033857;28;20611;-72
2023/04/11 08:47:38;;;;;;;0.70;0.70;;;11.60;96.20;;;;;;5033916;28;20528;-75
2023/04/11 08:50:05;;;;;;;2.10;0.63;;;12.00;95.00;;;;;;5033688;28;20404;-76
2023/04/11 08:52:31;;;;;;;0.37;0.37;;;12.40;93.00;;;;;;5033525;28;20813;-74
2023/04/11 08:54:57;;;;;;;0.60;0.60;;;12.30;93.20;;;;;;5033529;28;20504;-75
2023/04/11 08:57:27;;;;;;;0.60;0.60;;;12.20;93.40;;;;;;5032887;28;20534;-71
2023/04/11 08:59:54;;;;;;;0.63;0.40;;;12.20;93.20;;;;;;5033592;28;20701;-75
2023/04/11 09:02:20;;;;;;;4.43;0.83;;;12.20;92.90;;;;;;5033388;28;20433;-75
2023/04/11 09:04:46;;;;;;;0.70;0.40;;;12.30;92.50;;;;;;5015642;28;20915;-73
2023/04/11 09:07:14;;;;;;;0.83;0.83;;;12.50;92.40;;;;;;5015814;28;20437;-75
2023/04/11 09:09:39;;;;;;;0.40;0.40;;;12.40;91.80;;;;;;5033273;28;20182;-75
2023/04/11 09:12:05;;;;;;;0.83;0.83;;;12.20;92.70;;;;;;5033297;28;20429;-73
2023/04/11 09:14:31;;;;;;;0.40;0.40;;;12.00;92.70;;;;;;5033178;28;20171;-75
2023/04/11 09:17:03;;;;;;;1.40;1.30;;;11.90;93.00;;;;;;5033361;28;20398;-75
2023/04/11 09:19:30;;;;;;;11.70;1.13;;;11.60;92.70;;;;;;5033262;28;20225;-73
2023/04/11 09:22:01;;;;;;;0.30;0.30;;;11.60;94.10;;;;;;5033347;28;20432;-73
2023/04/11 09:24:28;;;;;;;0.60;0.60;;;12.00;94.50;;;;;;5033079;28;20385;-74
2023/04/11 09:27:15;;;;;;;0.80;0.50;;;12.40;93.00;;;;;;5033063;28;20444;-74
2023/04/11 09:29:47;;;;;;;0.40;0.40;;;12.60;93.10;;;;;;5015552;28;20756;-75
2023/04/11 09:32:25;;;;;;;0.73;0.60;;;12.80;92.60;;;;;;5033123;28;20427;-74
2023/04/11 09:35:06;;;;;;;0.30;0.30;;;12.90;92.00;;;;;;5032883;28;20409;-73
2023/04/11 09:37:52;;;;;;;1.00;0.90;;;12.70;90.50;;;;;;5033242;28;20446;-74
2023/04/11 09:40:21;;;;;;;0.30;0.30;;;12.60;92.10;;;;;;5033106;28;20788;-77
2023/04/11 09:42:54;;;;;;;0.40;0.40;;;12.60;91.90;;;;;;5032803;28;20429;-75
2023/04/11 09:45:21;;;;;;;0.40;0.40;;;12.80;92.50;;;;;;5033315;28;20404;-75
2023/04/11 09:47:49;;;;;;;0.30;0.30;;;13.10;91.10;;;;;;5033251;28;20417;-73
2023/04/11 09:50:15;;;;;;;0.70;0.40;;;13.20;91.20;;;;;;5032988;28;20432;-76
2023/04/11 09:52:42;;;;;;;0.87;0.87;;;13.30;89.60;;;;;;5032890;28;20429;-75
2023/04/11 09:55:10;;;;;;;0.30;0.30;;;13.10;89.10;;;;;;5032879;28;20492;-75
2023/04/11 09:57:44;;;;;;;0.30;0.30;;;12.90;89.90;;;;;;5032972;28;20447;-76
2023/04/11 10:00:18;;;;;;;0.50;0.50;;;12.80;90.30;;;;;;5033024;28;20394;-75
2023/04/11 10:02:45;;;;;;;0.43;0.43;;;12.40;89.80;;;;;;5032823;28;20432;-78
2023/04/11 10:05:12;;;;;;;0.30;0.30;;;12.50;91.10;;;;;;5032738;28;20488;-73
2023/04/11 10:07:52;;;;;;;0.50;0.50;;;12.60;91.20;;;;;;5032947;28;20408;-74
2023/04/11 10:10:19;;;;;;;0.40;0.40;;;12.90;90.40;;;;;;5035418;28;20917;-74
2023/04/11 10:12:46;;;;;;;0.30;0.30;;;13.00;90.10;;;;;;5036537;28;20425;-73
2023/04/11 10:15:12;;;;;;;0.40;0.40;;;12.90;90.80;;;;;;5036338;28;20400;-74
2023/04/11 10:17:39;;;;;;;0.40;0.40;;;13.00;91.70;;;;;;5036323;28;20963;-76
2023/04/11 10:20:30;;;;;;;0.47;0.47;;;13.10;90.60;;;;;;5036593;28;20438;-75
2023/04/11 10:22:59;;;;;;;0.30;0.30;;;13.20;88.90;;;;;;5036011;28;20819;-73
2023/04/11 10:25:26;;;;;;;0.30;0.30;;;13.00;89.20;;;;;;5036286;28;20401;-74
2023/04/11 10:28:01;;;;;;;2.53;1.70;;;13.10;89.80;;;;;;5036272;28;20405;-74
2023/04/11 10:30:39;;;;;;;9.50;0.80;;;13.10;89.30;;;;;;5018587;28;20433;-75
2023/04/11 10:33:12;;;;;;;0.30;0.30;;;13.20;89.50;;;;;;5035869;28;20477;-74
2023/04/11 10:35:58;;;;;;;0.70;0.70;;;13.00;89.10;;;;;;5036295;28;20893;-72
2023/04/11 10:38:47;;;;;;;0.97;0.80;;;12.80;90.20;;;;;;5036076;28;20457;-76
2023/04/11 10:41:26;;;;;;;0.30;0.30;;;13.00;90.00;;;;;;5036149;28;20420;-73
2023/04/11 10:44:10;;;;;;;1.27;0.70;;;13.10;87.80;;;;;;5035827;28;21010;-75
2023/04/11 10:46:43;;;;;;;1.07;1.07;;;13.10;90.00;;;;;;5035932;28;20393;-74
2023/04/11 10:49:09;;;;;;;1.03;0.50;;;12.30;89.10;;;;;;5036083;28;20485;-74
2023/04/11 10:51:35;;;;;;;1.13;1.00;;;12.30;90.80;;;;;;5035998;28;20417;-74
2023/04/11 10:54:01;;;;;;;0.77;0.77;;;12.60;90.10;;;;;;5035559;28;20579;-73
2023/04/11 10:56:42;;;;;;;0.50;0.50;;;12.90;88.40;;;;;;5035658;28;20202;-72
2023/04/11 10:59:30;;;;;;;0.73;0.47;;;13.00;86.70;;;;;;5035584;28;20226;-71
2023/04/11 11:01:56;;;;;;;0.70;0.70;;;13.10;90.00;;;;;;5035514;28;20465;-75
2023/04/11 11:04:37;;;;;;;0.60;0.60;;;13.30;89.80;;;;;;5035440;28;20432;-72
2023/04/11 11:07:06;;;;;;;0.43;0.43;;;13.50;87.60;;;;;;5035795;28;20409;-71
2023/04/11 11:09:32;;;;;;;2.37;2.17;;;13.90;85.10;;;;;;5017513;28;20433;-75
2023/04/11 11:12:12;;;;;;;1.37;1.27;;;13.90;83.20;;;;;;5035617;28;20425;-76
2023/04/11 11:14:40;;;;;;;0.30;0.30;;;13.60;83.00;;;;;;5035427;28;20569;-72
2023/04/11 11:17:07;;;;;;;1.33;0.60;;;13.30;85.40;;;;;;5035428;28;20398;-73
2023/04/11 11:19:37;;;;;;;0.70;0.60;;;13.10;85.70;;;;;;5035533;28;20450;-75
2023/04/11 11:22:03;;;;;;;0.77;0.60;;;13.10;84.80;;;;;;5034124;28;20835;-75
2023/04/11 11:24:29;;;;;;;0.50;0.50;;;13.20;87.40;;;;;;5035109;28;20410;-75
2023/04/11 11:26:56;;;;;;;0.70;0.70;;;13.30;84.30;;;;;;5035203;28;20776;-76
2023/04/11 11:29:33;;;;;;;0.30;0.30;;;13.40;84.90;;;;;;5035576;28;20495;-73
2023/04/11 11:32:01;;;;;;;3.43;1.83;;;13.40;86.90;;;;;;5035462;28;20432;-73
2023/04/11 11:34:32;;;;;;;0.40;0.40;;;13.30;82.90;;;;;;5017190;28;20425;-75
2023/04/11 11:37:00;;;;;;;0.40;0.40;;;13.20;83.50;;;;;;5035661;28;20402;-73
2023/04/11 11:39:28;;;;;;;1.03;0.97;;;13.20;85.20;;;;;;5035080;28;20461;-76
2023/04/11 11:41:54;;;;;;;0.40;0.40;;;13.30;84.80;;;;;;5034996;28;20430;-75
2023/04/11 11:44:25;;;;;;;0.40;0.40;;;13.50;87.30;;;;;;5016834;28;20425;-75
2023/04/11 11:47:19;;;;;;;0.30;0.30;;;13.80;84.10;;;;;;5034846;28;20412;-73
2023/04/11 11:49:50;;;;;;;0.40;0.40;;;14.00;85.80;;;;;;5000548;28;20933;-76
2023/04/11 11:52:33;;;;;;;0.80;0.80;;;14.10;83.30;;;;;;5016829;28;21032;-74
2023/04/11 11:55:00;;;;;;;0.60;0.60;;;13.90;83.00;;;;;;5034483;28;20682;-73
2023/04/11 11:57:26;;;;;;;0.40;0.40;;;13.70;83.50;;;;;;5034568;28;20398;-73
2023/04/11 11:59:55;;;;;;;0.63;0.63;;;13.70;83.50;;;;;;5034627;28;20409;-74
2023/04/11 12:02:22;;;;;;;0.40;0.40;;;13.70;83.00;;;;;;5034687;28;20957;-76
2023/04/11 12:04:48;;;;;;;0.40;0.40;;;13.70;83.00;;;;;;5034473;28;20433;-76
2023/04/11 12:07:20;;;;;;;1.33;0.80;;;13.70;83.40;;;;;;5034364;28;20452;-75
2023/04/11 12:09:48;;;;;;;0.40;0.40;;;13.60;82.70;;;;;;5034332;28;20184;-72
2023/04/11 12:12:16;;;;;;;0.77;0.50;;;13.70;83.40;;;;;;5016490;28;20495;-76
2023/04/11 12:14:52;;;;;;;0.40;0.40;;;13.80;83.00;;;;;;5034108;28;20409;-74
2023/04/11 12:17:18;;;;;;;0.50;0.43;;;14.00;82.10;;;;;;5016629;28;20426;-76
2023/04/11 12:19:43;;;;;;;1.23;0.47;;;13.90;80.20;;;;;;5034303;28;20406;-73
2023/04/11 12:22:09;;;;;;;0.60;0.60;;;13.70;81.60;;;;;;5034050;28;20195;-74
2023/04/11 12:24:35;;;;;;;0.30;0.30;;;13.50;81.00;;;;;;5033909;28;20167;-74
2023/04/11 12:27:00;;;;;;;0.83;0.63;;;13.60;83.00;;;;;;5034365;28;20634;-75
2023/04/11 12:29:26;;;;;;;1.37;1.00;;;13.50;83.40;;;;;;5034166;28;20267;-72
2023/04/11 12:31:51;;;;;;;0.50;0.50;;;13.50;81.10;;;;;;5033863;28;20198;-74
2023/04/11 12:34:17;;;;;;;0.50;0.50;;;13.40;83.10;;;;;;5033703;28;20183;-73
2023/04/11 12:36:43;;;;;;;1.17;0.70;;;13.30;84.20;;;;;;5034069;28;20182;-72
2023/04/11 12:39:08;;;;;;;0.50;0.50;;;13.30;81.60;;;;;;5033825;28;20234;-75
2023/04/11 12:41:34;;;;;;;0.40;0.40;;;13.10;81.40;;;;;;5033701;28;20534;-75
2023/04/11 12:44:01;;;;;;;0.30;0.30;;;13.30;80.90;;;;;;5033593;28;20177;-72
2023/04/11 12:46:26;;;;;;;0.40;0.40;;;13.50;83.40;;;;;;5034120;28;20242;-75
2023/04/11 12:48:52;;;;;;;0.50;0.50;;;13.70;82.50;;;;;;5033804;28;20509;-75
2023/04/11 12:51:18;;;;;;;0.73;0.70;;;13.90;81.80;;;;;;5033739;28;20217;-74
2023/04/11 12:53:43;;;;;;;0.50;0.50;;;14.10;80.60;;;;;;5033385;28;20223;-75